createdAt,value
2023-02-15T00:02:05.617Z,4.08
2023-02-15T00:04:49.602Z,3.92
2023-02-15T00:07:33.653Z,3.79
2023-02-15T00:10:18.433Z,4.18
2023-02-15T00:13:02.872Z,4.18
2023-02-15T00:15:48.345Z,3.89
2023-02-15T00:18:32.751Z,3.97
2023-02-15T00:21:16.738Z,3.98
2023-02-15T00:24:02.512Z,3.62
2023-02-15T00:26:47.323Z,3.86
2023-02-15T00:29:31.610Z,3.56
2023-02-15T00:32:17.331Z,3.86
2023-02-15T00:35:01.233Z,3.52
2023-02-15T00:37:45.224Z,3.46
2023-02-15T00:40:29.068Z,3.66
2023-02-15T00:43:13.009Z,3.24
2023-02-15T00:46:01.037Z,3.81
2023-02-15T00:48:46.691Z,3.75
2023-02-15T00:51:30.912Z,3.41
2023-02-15T00:54:14.862Z,3.38
2023-02-15T00:56:58.834Z,3.44
2023-02-15T00:59:42.666Z,3.11
2023-02-15T01:02:26.630Z,3.28
2023-02-15T01:05:11.934Z,3.50
2023-02-15T01:07:55.988Z,3.36
2023-02-15T01:10:40.149Z,3.25
2023-02-15T01:13:24.674Z,3.00
2023-02-15T01:16:09.320Z,2.92
2023-02-15T01:18:53.468Z,3.09
2023-02-15T01:21:38.969Z,2.98
2023-02-15T01:24:22.998Z,3.02
2023-02-15T01:27:06.851Z,3.08
2023-02-15T01:29:50.761Z,2.86
2023-02-15T01:32:34.899Z,3.01
2023-02-15T01:35:19.153Z,3.02
2023-02-15T01:38:05.517Z,2.68
2023-02-15T01:40:49.590Z,2.87
2023-02-15T01:43:43.144Z,2.77
2023-02-15T01:46:33.566Z,2.88
2023-02-15T01:49:22.113Z,2.83
2023-02-15T01:52:06.400Z,2.61
2023-02-15T01:54:52.786Z,2.80
2023-02-15T01:57:37.335Z,2.58
2023-02-15T02:00:22.783Z,2.53
2023-02-15T02:03:07.184Z,2.79
2023-02-15T02:05:51.786Z,2.83
2023-02-15T02:08:36.335Z,2.89
2023-02-15T02:11:21.882Z,2.77
2023-02-15T02:14:06.014Z,3.02
2023-02-15T02:16:57.782Z,2.80
2023-02-15T02:20:18.468Z,2.37
2023-02-15T02:23:25.878Z,2.76
2023-02-15T02:27:04.309Z,2.61
2023-02-15T02:30:25.848Z,2.84
2023-02-15T02:33:30.068Z,2.35
2023-02-15T02:36:20.201Z,2.11
2023-02-15T02:39:19.418Z,2.39
2023-02-15T02:42:09.559Z,2.25
2023-02-15T02:44:56.775Z,2.04
2023-02-15T02:47:46.343Z,2.17
2023-02-15T02:50:32.835Z,1.98
2023-02-15T02:53:16.705Z,2.14
2023-02-15T02:56:08.365Z,2.20
2023-02-15T02:58:58.567Z,2.74
2023-02-15T03:01:46.422Z,2.53
2023-02-15T03:04:35.402Z,2.24
2023-02-15T03:07:25.017Z,2.04
2023-02-15T03:10:10.998Z,2.31
2023-02-15T03:12:55.334Z,2.36
2023-02-15T03:15:59.575Z,2.33
2023-02-15T03:18:53.938Z,2.44
2023-02-15T03:21:50.652Z,2.17
2023-02-15T03:24:40.137Z,2.00
2023-02-15T03:27:27.198Z,1.97
2023-02-15T03:30:15.299Z,2.41
2023-02-15T03:33:02.164Z,2.37
2023-02-15T03:35:54.854Z,2.41
2023-02-15T03:38:45.736Z,1.98
2023-02-15T03:41:38.236Z,1.89
2023-02-15T03:44:27.690Z,2.58
2023-02-15T03:47:17.868Z,2.45
2023-02-15T03:50:27.771Z,2.31
2023-02-15T03:53:16.063Z,2.27
2023-02-15T03:56:00.723Z,2.34
2023-02-15T03:59:03.406Z,2.44
2023-02-15T04:02:01.264Z,2.25
2023-02-15T04:04:48.455Z,2.25
2023-02-15T04:07:32.258Z,2.40
2023-02-15T04:10:33.630Z,2.26
2023-02-15T04:13:17.431Z,2.14
2023-02-15T04:16:05.321Z,2.23
2023-02-15T04:19:06.523Z,2.21
2023-02-15T04:22:07.913Z,2.21
2023-02-15T04:25:09.341Z,2.41
2023-02-15T04:27:54.742Z,2.14
2023-02-15T04:30:38.507Z,2.06
2023-02-15T04:33:23.649Z,2.21
2023-02-15T04:36:07.788Z,2.27
2023-02-15T04:38:51.658Z,2.28
2023-02-15T04:41:35.771Z,2.23
2023-02-15T04:44:19.582Z,2.22
2023-02-15T04:47:03.371Z,2.12
2023-02-15T04:49:48.737Z,1.97
2023-02-15T04:52:32.510Z,2.21
2023-02-15T04:55:16.568Z,2.05
2023-02-15T04:58:00.344Z,1.86
2023-02-15T05:00:44.271Z,2.08
2023-02-15T05:03:28.178Z,2.06
2023-02-15T05:06:13.359Z,2.18
2023-02-15T05:09:00.042Z,2.16
2023-02-15T05:11:44.270Z,1.83
2023-02-15T05:14:28.145Z,2.14
2023-02-15T05:17:11.810Z,2.01
2023-02-15T05:19:57.280Z,2.10
2023-02-15T05:22:42.906Z,2.30
2023-02-15T05:25:44.287Z,2.08
2023-02-15T05:28:29.895Z,2.06
2023-02-15T05:31:16.106Z,2.18
2023-02-15T05:34:00.172Z,2.06
2023-02-15T05:36:44.074Z,2.31
2023-02-15T05:39:29.230Z,2.40
2023-02-15T05:42:13.039Z,2.30
2023-02-15T05:44:57.008Z,2.44
2023-02-15T05:47:40.831Z,2.52
2023-02-15T05:50:24.669Z,2.40
2023-02-15T05:53:08.437Z,2.42
2023-02-15T05:55:54.851Z,2.70
2023-02-15T05:58:40.423Z,2.66
2023-02-15T06:01:24.162Z,2.55
2023-02-15T06:04:07.928Z,2.74
2023-02-15T06:06:51.725Z,2.61
2023-02-15T06:09:35.529Z,2.50
2023-02-15T06:12:20.681Z,2.52
2023-02-15T06:15:05.451Z,2.48
2023-02-15T06:17:49.162Z,2.44
2023-02-15T06:20:33.442Z,2.89
2023-02-15T06:23:17.884Z,2.70
2023-02-15T06:26:01.914Z,2.77
2023-02-15T06:28:47.521Z,3.03
2023-02-15T06:31:31.323Z,2.98
2023-02-15T06:34:15.304Z,3.01
2023-02-15T06:36:59.255Z,2.83
2023-02-15T06:39:43.482Z,3.01
2023-02-15T06:42:27.613Z,3.23
2023-02-15T06:45:13.594Z,3.56
2023-02-15T06:47:57.448Z,3.43
2023-02-15T06:50:41.813Z,3.48
2023-02-15T06:53:25.632Z,3.58
2023-02-15T06:56:10.276Z,3.29
2023-02-15T06:58:54.605Z,3.52
2023-02-15T07:01:40.095Z,3.99
2023-02-15T07:04:24.314Z,3.29
2023-02-15T07:07:11.497Z,3.57
2023-02-15T07:09:55.653Z,3.42
2023-02-15T07:12:46.750Z,3.56
2023-02-15T07:15:30.842Z,3.46
2023-02-15T07:18:16.281Z,3.35
2023-02-15T07:21:00.344Z,3.55
2023-02-15T07:23:44.298Z,3.51
2023-02-15T07:26:28.712Z,3.73
2023-02-15T07:29:12.759Z,4.55
2023-02-15T07:31:57.678Z,4.05
2023-02-15T07:34:44.237Z,3.96
2023-02-15T07:37:29.076Z,3.99
2023-02-15T07:40:13.814Z,3.67
2023-02-15T07:43:00.750Z,4.08
2023-02-15T07:45:45.277Z,4.51
2023-02-15T07:48:29.459Z,4.57
2023-02-15T07:51:20.113Z,4.22
2023-02-15T07:54:04.113Z,3.72
2023-02-15T07:56:48.057Z,3.97
2023-02-15T07:59:32.430Z,4.12
2023-02-15T08:02:18.378Z,4.08
2023-02-15T08:05:02.580Z,3.84
2023-02-15T08:07:48.064Z,4.32
2023-02-15T08:10:46.748Z,3.96
2023-02-15T08:13:30.658Z,3.68
2023-02-15T08:16:14.644Z,4.18
2023-02-15T08:18:59.847Z,4.19
2023-02-15T08:21:45.990Z,4.51
2023-02-15T08:24:35.290Z,4.47
2023-02-15T08:27:19.307Z,4.30
2023-02-15T08:30:03.344Z,4.64
2023-02-15T08:32:47.677Z,4.70
2023-02-15T08:35:31.816Z,5.10
2023-02-15T08:38:16.600Z,4.73
2023-02-15T08:41:11.888Z,5.09
2023-02-15T08:43:57.772Z,5.22
2023-02-15T08:46:43.272Z,5.27
2023-02-15T08:49:27.157Z,5.39
2023-02-15T08:52:11.077Z,5.19
2023-02-15T08:54:54.989Z,4.82
2023-02-15T08:57:45.896Z,5.16
2023-02-15T09:00:30.347Z,5.24
2023-02-15T09:03:14.340Z,5.36
2023-02-15T09:06:01.898Z,5.27
2023-02-15T09:08:45.672Z,5.26
2023-02-15T09:11:31.445Z,5.00
2023-02-15T09:14:18.567Z,5.21
2023-02-15T09:17:02.386Z,5.47
2023-02-15T09:19:46.214Z,5.69
2023-02-15T09:22:31.147Z,5.52
2023-02-15T09:25:15.037Z,5.62
2023-02-15T09:27:58.780Z,5.47
2023-02-15T09:30:44.073Z,5.49
2023-02-15T09:33:27.925Z,5.88
2023-02-15T09:36:17.803Z,6.01
2023-02-15T09:39:07.000Z,5.70
2023-02-15T09:42:18.550Z,5.85
2023-02-15T09:45:20.365Z,6.08
2023-02-15T09:48:28.644Z,6.16
2023-02-15T09:51:41.997Z,6.19
2023-02-15T09:54:37.681Z,5.89
2023-02-15T09:57:29.029Z,6.17
2023-02-15T10:00:23.353Z,6.11
2023-02-15T10:03:21.916Z,6.41
2023-02-15T10:06:25.645Z,6.37
2023-02-15T10:09:29.923Z,5.98
2023-02-15T10:12:36.835Z,6.31
2023-02-15T10:15:42.501Z,6.23
2023-02-15T10:18:50.480Z,6.31
2023-02-15T10:21:51.131Z,6.67
2023-02-15T10:24:57.896Z,6.82
2023-02-15T10:27:48.514Z,6.76
2023-02-15T10:30:44.276Z,6.36
2023-02-15T10:33:41.223Z,6.51
2023-02-15T10:36:42.923Z,6.35
2023-02-15T10:39:35.027Z,6.83
2023-02-15T10:42:29.649Z,6.36
2023-02-15T10:45:26.081Z,6.99
2023-02-15T10:48:24.071Z,7.27
2023-02-15T10:51:14.514Z,6.74
2023-02-15T10:54:19.242Z,7.11
2023-02-15T10:57:12.620Z,7.09
2023-02-15T11:00:13.123Z,6.60
2023-02-15T11:03:14.560Z,7.04
2023-02-15T11:06:06.169Z,6.66
2023-02-15T11:08:53.466Z,6.64
2023-02-15T11:11:43.157Z,6.77
2023-02-15T11:14:37.667Z,6.94
2023-02-15T11:17:26.643Z,7.04
2023-02-15T11:20:19.795Z,7.28
2023-02-15T11:23:04.707Z,7.58
2023-02-15T11:25:56.075Z,6.44
2023-02-15T11:28:47.547Z,6.45
2023-02-15T11:31:44.720Z,6.40
2023-02-15T11:34:33.603Z,6.69
2023-02-15T11:37:22.757Z,7.02
2023-02-15T11:40:20.526Z,7.40
2023-02-15T11:43:09.070Z,7.20
2023-02-15T11:45:55.633Z,6.87
2023-02-15T11:48:39.708Z,7.37
2023-02-15T11:51:25.125Z,7.19
2023-02-15T11:54:11.080Z,7.34
2023-02-15T11:56:55.285Z,7.70
2023-02-15T11:59:42.456Z,7.89
2023-02-15T12:02:31.179Z,7.88
2023-02-15T12:05:20.184Z,7.23
2023-02-15T12:08:16.097Z,6.86
2023-02-15T12:11:05.310Z,6.92
2023-02-15T12:14:00.401Z,7.07
2023-02-15T12:16:47.602Z,6.82
2023-02-15T12:19:39.264Z,6.69
2023-02-15T12:22:26.367Z,6.85
2023-02-15T12:25:24.532Z,6.79
2023-02-15T12:28:26.237Z,6.52
2023-02-15T12:31:21.841Z,6.62
2023-02-15T12:34:13.917Z,6.35
2023-02-15T12:37:03.317Z,6.30
2023-02-15T12:39:56.747Z,6.37
2023-02-15T12:42:45.749Z,7.27
2023-02-15T12:45:32.096Z,7.78
2023-02-15T12:48:18.489Z,7.71
2023-02-15T12:51:11.603Z,7.89
2023-02-15T12:53:57.277Z,8.11
2023-02-15T12:56:41.368Z,8.24
2023-02-15T12:59:25.524Z,8.59
2023-02-15T13:02:21.621Z,7.50
2023-02-15T13:05:20.892Z,8.10
2023-02-15T13:08:14.023Z,8.22
2023-02-15T13:11:02.063Z,8.21
2023-02-15T13:13:55.497Z,7.77
2023-02-15T13:16:42.014Z,8.11
2023-02-15T13:19:34.221Z,7.86
2023-02-15T13:22:22.555Z,8.12
2023-02-15T13:25:12.872Z,8.14
2023-02-15T13:28:03.016Z,8.38
2023-02-15T13:30:49.259Z,8.69
2023-02-15T13:33:37.497Z,8.31
2023-02-15T13:36:31.449Z,7.73
2023-02-15T13:39:27.407Z,7.76
2023-02-15T13:42:22.780Z,8.05
2023-02-15T13:45:24.631Z,8.58
2023-02-15T13:48:18.763Z,8.57
2023-02-15T13:51:14.025Z,8.32
2023-02-15T13:54:22.608Z,8.78
2023-02-15T13:57:28.338Z,8.35
2023-02-15T14:00:23.882Z,8.50
2023-02-15T14:03:56.121Z,8.64
2023-02-15T14:06:55.516Z,8.49
2023-02-15T14:09:50.583Z,8.71
2023-02-15T14:12:46.548Z,9.05
2023-02-15T14:15:39.045Z,8.12
2023-02-15T14:18:32.660Z,8.11
2023-02-15T14:21:24.540Z,7.62
2023-02-15T14:24:21.452Z,7.74
2023-02-15T14:27:20.877Z,7.74
2023-02-15T14:30:15.012Z,7.50
2023-02-15T14:33:07.032Z,7.21
2023-02-15T14:35:51.222Z,7.29
2023-02-15T14:38:53.152Z,7.10
2023-02-15T14:41:41.998Z,7.37
2023-02-15T14:44:33.413Z,7.26
2023-02-15T14:47:22.239Z,7.58
2023-02-15T14:50:43.942Z,7.48
2023-02-15T14:53:51.087Z,7.44
2023-02-15T14:56:35.205Z,7.17
2023-02-15T14:59:21.799Z,7.50
2023-02-15T15:02:16.084Z,7.02
2023-02-15T15:05:08.799Z,7.04
2023-02-15T15:07:55.123Z,7.31
2023-02-15T15:10:50.220Z,7.31
2023-02-15T15:13:40.352Z,7.08
2023-02-15T15:16:48.008Z,7.00
2023-02-15T15:20:00.769Z,7.02
2023-02-15T15:22:46.895Z,7.17
2023-02-15T15:25:47.357Z,7.10
2023-02-15T15:28:56.983Z,6.91
2023-02-15T15:31:53.796Z,6.59
2023-02-15T15:35:05.705Z,6.78
2023-02-15T15:38:13.213Z,6.65
2023-02-15T15:41:18.823Z,6.11
2023-02-15T15:44:29.932Z,6.25
2023-02-15T15:47:32.861Z,5.69
2023-02-15T15:50:19.393Z,5.40
2023-02-15T15:53:05.630Z,5.36
2023-02-15T15:55:51.218Z,4.92
2023-02-15T15:58:37.436Z,4.85
2023-02-15T16:01:28.944Z,4.70
2023-02-15T16:04:15.105Z,4.58
2023-02-15T16:06:59.980Z,4.12
2023-02-15T16:09:55.384Z,3.95
2023-02-15T16:12:42.070Z,4.16
2023-02-15T16:15:33.368Z,4.08
2023-02-15T16:18:19.682Z,4.02
2023-02-15T16:21:04.748Z,3.61
2023-02-15T16:24:15.137Z,3.63
2023-02-15T16:27:13.855Z,3.56
2023-02-15T16:29:58.284Z,3.14
2023-02-15T16:32:43.861Z,3.21
2023-02-15T16:35:28.374Z,3.49
2023-02-15T16:38:12.893Z,3.47
2023-02-15T16:40:59.218Z,3.14
2023-02-15T16:43:46.538Z,3.46
2023-02-15T16:46:33.695Z,3.50
2023-02-15T16:49:22.538Z,3.46
2023-02-15T16:52:10.352Z,3.06
2023-02-15T16:54:58.975Z,3.13
2023-02-15T16:57:46.334Z,3.18
2023-02-15T17:00:34.354Z,3.71
2023-02-15T17:03:26.404Z,3.43
2023-02-15T17:06:23.501Z,3.22
2023-02-15T17:09:11.666Z,3.53
2023-02-15T17:11:56.430Z,3.52
2023-02-15T17:14:41.957Z,3.50
2023-02-15T17:17:25.997Z,3.06
2023-02-15T17:20:17.617Z,3.08
2023-02-15T17:23:03.613Z,2.83
2023-02-15T17:25:48.117Z,3.24
2023-02-15T17:28:33.755Z,3.09
2023-02-15T17:31:19.877Z,3.01
2023-02-15T17:34:04.345Z,2.82
2023-02-15T17:37:00.108Z,2.82
2023-02-15T17:39:45.630Z,2.60
2023-02-15T17:42:29.599Z,3.17
2023-02-15T17:45:15.392Z,2.73
2023-02-15T17:48:00.589Z,2.85
2023-02-15T17:50:44.762Z,3.04
2023-02-15T17:53:29.359Z,2.84
2023-02-15T17:56:14.812Z,2.84
2023-02-15T17:58:58.977Z,3.06
2023-02-15T18:02:05.323Z,3.14
2023-02-15T18:05:06.895Z,2.85
2023-02-15T18:08:08.683Z,2.99
2023-02-15T18:11:10.345Z,2.61
2023-02-15T18:13:58.052Z,2.78
2023-02-15T18:16:43.892Z,3.26
2023-02-15T18:19:28.119Z,3.04
2023-02-15T18:22:13.119Z,3.12
2023-02-15T18:24:57.321Z,2.69
2023-02-15T18:27:41.917Z,2.67
2023-02-15T18:30:28.291Z,2.85
2023-02-15T18:33:30.716Z,3.04
2023-02-15T18:36:19.550Z,2.72
2023-02-15T18:39:08.850Z,2.63
2023-02-15T18:41:54.599Z,2.80
2023-02-15T18:44:38.849Z,2.77
2023-02-15T18:47:24.437Z,3.10
2023-02-15T18:50:09.447Z,2.82
2023-02-15T18:52:53.916Z,2.79
2023-02-15T18:55:38.081Z,2.93
2023-02-15T18:58:24.798Z,3.06
2023-02-15T19:01:16.885Z,3.05
2023-02-15T19:04:03.529Z,2.83
2023-02-15T19:06:49.509Z,2.57
2023-02-15T19:09:33.871Z,2.34
2023-02-15T19:12:19.679Z,2.40
2023-02-15T19:15:03.872Z,2.20
2023-02-15T19:17:48.162Z,2.28
2023-02-15T19:20:36.636Z,2.63
2023-02-15T19:23:23.721Z,2.58
2023-02-15T19:26:07.762Z,2.52
2023-02-15T19:28:52.383Z,2.59
2023-02-15T19:31:36.479Z,2.57
2023-02-15T19:34:20.922Z,2.81
2023-02-15T19:37:09.158Z,2.86
2023-02-15T19:39:54.766Z,2.81
2023-02-15T19:42:38.880Z,2.78
2023-02-15T19:45:25.158Z,2.43
2023-02-15T19:48:10.898Z,2.14
2023-02-15T19:50:57.010Z,2.41
2023-02-15T19:53:42.905Z,2.29
2023-02-15T19:56:27.599Z,2.29
2023-02-15T19:59:23.392Z,2.38
2023-02-15T20:02:07.667Z,2.31
2023-02-15T20:04:51.862Z,2.24
2023-02-15T20:07:36.060Z,2.56
2023-02-15T20:10:23.305Z,2.48
2023-02-15T20:13:07.399Z,1.65
2023-02-15T20:15:52.836Z,2.42
2023-02-15T20:18:37.189Z,2.28
2023-02-15T20:21:21.412Z,2.56
2023-02-15T20:24:06.708Z,2.17
2023-02-15T20:26:52.396Z,1.90
2023-02-15T20:29:37.023Z,1.99
2023-02-15T20:32:21.034Z,2.31
2023-02-15T20:35:05.398Z,2.40
2023-02-15T20:37:52.406Z,2.56
2023-02-15T20:40:58.651Z,1.99
2023-02-15T20:43:44.314Z,2.21
2023-02-15T20:46:28.351Z,2.30
2023-02-15T20:49:12.807Z,2.23
2023-02-15T20:51:58.584Z,2.24
2023-02-15T20:54:42.854Z,2.37
2023-02-15T20:57:26.988Z,2.44
2023-02-15T21:00:19.163Z,1.78
2023-02-15T21:03:03.560Z,2.32
2023-02-15T21:05:49.770Z,2.31
2023-02-15T21:08:34.566Z,2.40
2023-02-15T21:11:20.751Z,1.92
2023-02-15T21:14:05.044Z,1.38
2023-02-15T21:16:51.387Z,1.50
2023-02-15T21:19:35.680Z,1.37
2023-02-15T21:22:21.764Z,1.40
2023-02-15T21:25:06.223Z,1.33
2023-02-15T21:27:50.112Z,1.39
2023-02-15T21:30:34.438Z,1.70
2023-02-15T21:33:20.371Z,1.71
2023-02-15T21:36:04.631Z,1.53
2023-02-15T21:38:49.233Z,1.71
2023-02-15T21:41:51.344Z,1.58
2023-02-15T21:44:52.738Z,1.42
2023-02-15T21:47:51.693Z,1.80
2023-02-15T21:50:55.556Z,1.95
2023-02-15T21:53:43.240Z,1.53
2023-02-15T21:56:27.137Z,1.45
2023-02-15T21:59:13.070Z,1.77
2023-02-15T22:01:59.266Z,1.44
2023-02-15T22:04:43.372Z,1.60
2023-02-15T22:07:28.546Z,1.54
2023-02-15T22:10:12.833Z,1.38
2023-02-15T22:12:57.164Z,1.57
2023-02-15T22:15:41.927Z,1.53
2023-02-15T22:18:28.903Z,1.20
2023-02-15T22:21:13.722Z,1.15
2023-02-15T22:23:59.111Z,1.23
2023-02-15T22:26:42.901Z,1.44
2023-02-15T22:29:27.093Z,1.37
2023-02-15T22:32:18.534Z,1.43
2023-02-15T22:35:02.520Z,1.25
2023-02-15T22:37:46.935Z,1.37
2023-02-15T22:40:34.899Z,1.42
2023-02-15T22:43:31.863Z,1.42
2023-02-15T22:46:17.802Z,1.30
2023-02-15T22:49:01.778Z,1.29
2023-02-15T22:51:48.503Z,0.78
2023-02-15T22:54:32.254Z,0.90
2023-02-15T22:57:21.179Z,0.87
2023-02-15T23:00:07.198Z,0.59
2023-02-15T23:02:51.196Z,0.60
2023-02-15T23:05:35.068Z,0.27
2023-02-15T23:08:19.210Z,-0.09
2023-02-15T23:11:04.004Z,-0.31
2023-02-15T23:13:50.815Z,-0.03
2023-02-15T23:16:37.440Z,-0.13
2023-02-15T23:19:21.483Z,-0.08
2023-02-15T23:22:05.397Z,0.37
2023-02-15T23:24:53.769Z,0.66
2023-02-15T23:27:55.100Z,0.65
2023-02-15T23:30:40.180Z,0.75
2023-02-15T23:33:29.294Z,0.78
2023-02-15T23:36:26.547Z,0.91
2023-02-15T23:39:32.783Z,0.77
2023-02-15T23:42:19.378Z,-0.17
2023-02-15T23:45:04.509Z,-0.36
2023-02-15T23:48:07.757Z,-0.05
2023-02-15T23:50:51.666Z,0.12
2023-02-15T23:53:35.634Z,0.29
2023-02-15T23:56:19.793Z,0.59
2023-02-15T23:59:04.313Z,0.50
